sensor_id;sensor_type;location;lat;lon;timestamp;temperature;humidity
12470;DHT22;36499;46.484;13.832;2023-04-29T03:55:24;6.90;99.90
12470;DHT22;36499;46.484;13.832;2023-04-29T03:57:51;7.00;99.90
12470;DHT22;36499;46.484;13.832;2023-04-29T04:00:18;7.00;99.90
12470;DHT22;36499;46.484;13.832;2023-04-29T04:02:46;6.90;99.90
12470;DHT22;36499;46.484;13.832;2023-04-29T04:05:13;6.90;99.90
12470;DHT22;36499;46.484;13.832;2023-04-29T04:07:40;7.00;99.90
12470;DHT22;36499;46.484;13.832;2023-04-29T04:10:08;7.00;99.90
12470;DHT22;36499;46.484;13.832;2023-04-29T04:12:38;7.00;99.90
12470;DHT22;36499;46.484;13.832;2023-04-29T04:15:05;7.00;99.90
12470;DHT22;36499;46.484;13.832;2023-04-29T04:17:33;7.10;99.90
12470;DHT22;36499;46.484;13.832;2023-04-29T04:20:00;7.10;99.90
12470;DHT22;36499;46.484;13.832;2023-04-29T04:22:27;7.10;99.90
12470;DHT22;36499;46.484;13.832;2023-04-29T04:24:54;7.20;99.90
12470;DHT22;36499;46.484;13.832;2023-04-29T04:27:22;7.20;99.90
12470;DHT22;36499;46.484;13.832;2023-04-29T04:29:54;7.20;99.90
12470;DHT22;36499;46.484;13.832;2023-04-29T04:32:21;7.20;99.90
12470;DHT22;36499;46.484;13.832;2023-04-29T04:34:48;7.30;99.90
12470;DHT22;36499;46.484;13.832;2023-04-29T04:37:15;7.30;99.90
12470;DHT22;36499;46.484;13.832;2023-04-29T04:39:43;7.40;99.90
12470;DHT22;36499;46.484;13.832;2023-04-29T04:42:10;7.40;99.90
12470;DHT22;36499;46.484;13.832;2023-04-29T04:44:37;7.40;99.90
12470;DHT22;36499;46.484;13.832;2023-04-29T04:47:05;7.40;99.90
12470;DHT22;36499;46.484;13.832;2023-04-29T04:49:32;7.40;99.90
12470;DHT22;36499;46.484;13.832;2023-04-29T04:51:59;7.40;99.90
12470;DHT22;36499;46.484;13.832;2023-04-29T04:54:26;7.40;99.90
12470;DHT22;36499;46.484;13.832;2023-04-29T04:56:53;7.40;99.90
12470;DHT22;36499;46.484;13.832;2023-04-29T04:59:21;7.40;99.90
12470;DHT22;36499;46.484;13.832;2023-04-29T05:01:48;7.50;99.90
12470;DHT22;36499;46.484;13.832;2023-04-29T05:04:16;7.50;99.90
12470;DHT22;36499;46.484;13.832;2023-04-29T05:06:43;7.50;99.90
12470;DHT22;36499;46.484;13.832;2023-04-29T05:09:11;7.60;99.90
12470;DHT22;36499;46.484;13.832;2023-04-29T05:11:38;7.70;99.90
12470;DHT22;36499;46.484;13.832;2023-04-29T05:14:06;7.70;99.90
12470;DHT22;36499;46.484;13.832;2023-04-29T05:16:33;7.80;99.90
12470;DHT22;36499;46.484;13.832;2023-04-29T05:19:00;7.90;99.90
12470;DHT22;36499;46.484;13.832;2023-04-29T05:21:29;8.00;99.90
12470;DHT22;36499;46.484;13.832;2023-04-29T05:23:56;8.10;99.90
12470;DHT22;36499;46.484;13.832;2023-04-29T05:26:23;8.10;99.90
12470;DHT22;36499;46.484;13.832;2023-04-29T05:28:50;8.20;99.90
12470;DHT22;36499;46.484;13.832;2023-04-29T05:31:17;8.30;99.90
12470;DHT22;36499;46.484;13.832;2023-04-29T05:33:45;8.40;99.90
12470;DHT22;36499;46.484;13.832;2023-04-29T05:36:12;8.50;99.90
12470;DHT22;36499;46.484;13.832;2023-04-29T05:38:40;8.60;99.90
12470;DHT22;36499;46.484;13.832;2023-04-29T05:41:09;8.70;99.90
12470;DHT22;36499;46.484;13.832;2023-04-29T05:43:38;8.70;99.90
12470;DHT22;36499;46.484;13.832;2023-04-29T05:46:05;8.80;99.90
12470;DHT22;36499;46.484;13.832;2023-04-29T05:48:32;8.80;99.90
12470;DHT22;36499;46.484;13.832;2023-04-29T05:50:59;8.80;99.90
12470;DHT22;36499;46.484;13.832;2023-04-29T05:53:27;8.90;99.90
12470;DHT22;36499;46.484;13.832;2023-04-29T05:55:56;8.90;99.90
12470;DHT22;36499;46.484;13.832;2023-04-29T05:58:23;9.00;99.90
12470;DHT22;36499;46.484;13.832;2023-04-29T06:00:50;9.00;99.90
12470;DHT22;36499;46.484;13.832;2023-04-29T06:03:17;9.10;99.90
12470;DHT22;36499;46.484;13.832;2023-04-29T06:05:44;9.10;99.90
12470;DHT22;36499;46.484;13.832;2023-04-29T06:08:11;9.10;99.90
12470;DHT22;36499;46.484;13.832;2023-04-29T06:10:39;9.20;99.90
12470;DHT22;36499;46.484;13.832;2023-04-29T06:13:07;9.30;99.90
12470;DHT22;36499;46.484;13.832;2023-04-29T06:15:34;9.30;99.90
12470;DHT22;36499;46.484;13.832;2023-04-29T06:18:01;9.40;99.90
12470;DHT22;36499;46.484;13.832;2023-04-29T06:20:28;9.40;99.90
12470;DHT22;36499;46.484;13.832;2023-04-29T06:22:55;9.50;99.90
12470;DHT22;36499;46.484;13.832;2023-04-29T06:25:22;9.60;99.90
12470;DHT22;36499;46.484;13.832;2023-04-29T06:27:49;9.70;99.90
12470;DHT22;36499;46.484;13.832;2023-04-29T06:30:18;9.80;99.90
12470;DHT22;36499;46.484;13.832;2023-04-29T06:32:45;9.80;99.90
12470;DHT22;36499;46.484;13.832;2023-04-29T06:35:12;9.90;99.90
12470;DHT22;36499;46.484;13.832;2023-04-29T06:37:39;10.00;99.90
12470;DHT22;36499;46.484;13.832;2023-04-29T06:40:07;10.10;99.90
12470;DHT22;36499;46.484;13.832;2023-04-29T06:42:35;10.20;99.90
12470;DHT22;36499;46.484;13.832;2023-04-29T06:45:03;10.30;99.90
12470;DHT22;36499;46.484;13.832;2023-04-29T06:47:32;10.40;99.90
12470;DHT22;36499;46.484;13.832;2023-04-29T06:49:59;10.60;99.90
12470;DHT22;36499;46.484;13.832;2023-04-29T06:52:26;10.80;99.90
12470;DHT22;36499;46.484;13.832;2023-04-29T06:54:54;10.90;99.90
12470;DHT22;36499;46.484;13.832;2023-04-29T06:57:21;11.00;99.90
12470;DHT22;36499;46.484;13.832;2023-04-29T06:59:48;11.10;99.90
12470;DHT22;36499;46.484;13.832;2023-04-29T07:02:15;11.10;99.90
12470;DHT22;36499;46.484;13.832;2023-04-29T07:04:43;11.20;99.90
12470;DHT22;36499;46.484;13.832;2023-04-29T07:07:10;11.30;99.90
12470;DHT22;36499;46.484;13.832;2023-04-29T07:09:37;11.40;99.90
12470;DHT22;36499;46.484;13.832;2023-04-29T07:12:05;11.50;99.90
12470;DHT22;36499;46.484;13.832;2023-04-29T07:14:32;11.60;99.90
12470;DHT22;36499;46.484;13.832;2023-04-29T07:16:59;11.80;99.90
12470;DHT22;36499;46.484;13.832;2023-04-29T07:19:26;12.00;99.90
12470;DHT22;36499;46.484;13.832;2023-04-29T07:21:54;12.10;99.90
12470;DHT22;36499;46.484;13.832;2023-04-29T07:24:22;12.30;99.90
12470;DHT22;36499;46.484;13.832;2023-04-29T07:26:49;12.50;99.90
12470;DHT22;36499;46.484;13.832;2023-04-29T07:29:16;12.60;99.90
12470;DHT22;36499;46.484;13.832;2023-04-29T07:31:43;12.70;99.90
12470;DHT22;36499;46.484;13.832;2023-04-29T07:34:10;12.80;99.90
12470;DHT22;36499;46.484;13.832;2023-04-29T07:36:38;12.80;99.90
12470;DHT22;36499;46.484;13.832;2023-04-29T07:39:06;12.80;99.90
12470;DHT22;36499;46.484;13.832;2023-04-29T07:41:34;12.90;99.90
12470;DHT22;36499;46.484;13.832;2023-04-29T07:44:01;12.90;99.90
12470;DHT22;36499;46.484;13.832;2023-04-29T07:46:28;13.00;99.90
12470;DHT22;36499;46.484;13.832;2023-04-29T07:48:55;13.00;99.90
12470;DHT22;36499;46.484;13.832;2023-04-29T07:51:23;13.10;99.90
12470;DHT22;36499;46.484;13.832;2023-04-29T07:53:53;13.10;99.90
12470;DHT22;36499;46.484;13.832;2023-04-29T07:56:21;13.30;99.90
12470;DHT22;36499;46.484;13.832;2023-04-29T07:58:48;13.50;99.90
12470;DHT22;36499;46.484;13.832;2023-04-29T08:01:15;13.80;99.90
12470;DHT22;36499;46.484;13.832;2023-04-29T08:03:43;14.00;99.90
12470;DHT22;36499;46.484;13.832;2023-04-29T08:06:10;14.10;99.90
12470;DHT22;36499;46.484;13.832;2023-04-29T08:08:37;14.20;99.90
12470;DHT22;36499;46.484;13.832;2023-04-29T08:11:04;14.40;99.90
12470;DHT22;36499;46.484;13.832;2023-04-29T08:13:33;14.50;99.90
12470;DHT22;36499;46.484;13.832;2023-04-29T08:16:00;14.50;99.90
12470;DHT22;36499;46.484;13.832;2023-04-29T08:18:27;14.40;99.90
12470;DHT22;36499;46.484;13.832;2023-04-29T08:20:54;14.40;99.90
12470;DHT22;36499;46.484;13.832;2023-04-29T08:23:21;14.40;99.90
12470;DHT22;36499;46.484;13.832;2023-04-29T08:25:48;14.30;99.90
12470;DHT22;36499;46.484;13.832;2023-04-29T08:28:16;14.20;99.90
12470;DHT22;36499;46.484;13.832;2023-04-29T08:30:45;14.30;99.90
12470;DHT22;36499;46.484;13.832;2023-04-29T08:33:12;14.30;99.90
12470;DHT22;36499;46.484;13.832;2023-04-29T08:35:39;14.40;99.90
12470;DHT22;36499;46.484;13.832;2023-04-29T08:38:08;14.40;99.90
12470;DHT22;36499;46.484;13.832;2023-04-29T08:40:41;14.40;99.90
12470;DHT22;36499;46.484;13.832;2023-04-29T08:43:11;14.50;99.90
12470;DHT22;36499;46.484;13.832;2023-04-29T08:45:40;14.60;99.90
12470;DHT22;36499;46.484;13.832;2023-04-29T08:48:09;14.70;99.90
12470;DHT22;36499;46.484;13.832;2023-04-29T08:50:38;14.70;99.90
12470;DHT22;36499;46.484;13.832;2023-04-29T08:53:06;14.60;99.90
12470;DHT22;36499;46.484;13.832;2023-04-29T08:55:35;14.70;99.90
12470;DHT22;36499;46.484;13.832;2023-04-29T08:58:06;14.70;99.90
12470;DHT22;36499;46.484;13.832;2023-04-29T09:00:35;14.70;99.90
12470;DHT22;36499;46.484;13.832;2023-04-29T09:03:12;14.80;99.90
12470;DHT22;36499;46.484;13.832;2023-04-29T09:05:44;14.90;99.90
12470;DHT22;36499;46.484;13.832;2023-04-29T09:08:15;15.00;99.90
12470;DHT22;36499;46.484;13.832;2023-04-29T09:10:43;15.20;99.90
12470;DHT22;36499;46.484;13.832;2023-04-29T09:13:22;15.40;99.90
12470;DHT22;36499;46.484;13.832;2023-04-29T09:15:50;15.70;99.90
12470;DHT22;36499;46.484;13.832;2023-04-29T09:18:43;16.10;99.90
12470;DHT22;36499;46.484;13.832;2023-04-29T09:21:13;16.40;99.90
12470;DHT22;36499;46.484;13.832;2023-04-29T09:23:41;16.70;99.90
12470;DHT22;36499;46.484;13.832;2023-04-29T09:26:08;17.00;99.90
12470;DHT22;36499;46.484;13.832;2023-04-29T09:28:35;17.20;99.90
12470;DHT22;36499;46.484;13.832;2023-04-29T09:31:04;17.50;99.90
12470;DHT22;36499;46.484;13.832;2023-04-29T09:36:48;17.60;99.90
12470;DHT22;36499;46.484;13.832;2023-04-29T09:39:16;17.90;99.90
12470;DHT22;36499;46.484;13.832;2023-04-29T09:41:59;18.00;99.90
12470;DHT22;36499;46.484;13.832;2023-04-29T09:44:28;18.10;99.90
12470;DHT22;36499;46.484;13.832;2023-04-29T09:46:59;18.30;99.90
12470;DHT22;36499;46.484;13.832;2023-04-29T09:49:28;18.40;99.90
12470;DHT22;36499;46.484;13.832;2023-04-29T09:52:00;18.60;99.90
12470;DHT22;36499;46.484;13.832;2023-04-29T09:54:29;18.80;99.70
12470;DHT22;36499;46.484;13.832;2023-04-29T09:56:59;18.90;99.60
12470;DHT22;36499;46.484;13.832;2023-04-29T09:59:31;19.10;98.60
12470;DHT22;36499;46.484;13.832;2023-04-29T10:02:01;19.20;97.40
12470;DHT22;36499;46.484;13.832;2023-04-29T10:04:34;19.30;97.10
12470;DHT22;36499;46.484;13.832;2023-04-29T10:07:08;19.50;99.90
12470;DHT22;36499;46.484;13.832;2023-04-29T10:09:39;19.70;97.90
12470;DHT22;36499;46.484;13.832;2023-04-29T10:12:07;19.90;96.40
12470;DHT22;36499;46.484;13.832;2023-04-29T10:14:39;19.90;94.90
12470;DHT22;36499;46.484;13.832;2023-04-29T10:17:15;20.00;94.90
12470;DHT22;36499;46.484;13.832;2023-04-29T10:19:52;20.10;97.20
12470;DHT22;36499;46.484;13.832;2023-04-29T10:22:29;20.10;95.70
12470;DHT22;36499;46.484;13.832;2023-04-29T10:25:02;20.30;95.40
12470;DHT22;36499;46.484;13.832;2023-04-29T10:27:33;20.40;95.70
12470;DHT22;36499;46.484;13.832;2023-04-29T10:30:03;20.50;92.20
12470;DHT22;36499;46.484;13.832;2023-04-29T10:32:34;20.60;94.20
12470;DHT22;36499;46.484;13.832;2023-04-29T10:35:06;20.80;94.30
12470;DHT22;36499;46.484;13.832;2023-04-29T10:37:37;20.90;92.40
12470;DHT22;36499;46.484;13.832;2023-04-29T10:40:10;20.90;91.70
12470;DHT22;36499;46.484;13.832;2023-04-29T10:42:44;21.10;93.20
12470;DHT22;36499;46.484;13.832;2023-04-29T10:45:23;21.00;90.00
12470;DHT22;36499;46.484;13.832;2023-04-29T10:48:10;21.00;89.00
12470;DHT22;36499;46.484;13.832;2023-04-29T10:51:00;21.10;91.20
12470;DHT22;36499;46.484;13.832;2023-04-29T10:53:29;21.20;88.50
12470;DHT22;36499;46.484;13.832;2023-04-29T10:55:59;21.10;90.80
12470;DHT22;36499;46.484;13.832;2023-04-29T10:58:41;20.70;86.80
12470;DHT22;36499;46.484;13.832;2023-04-29T11:01:10;20.40;88.80
12470;DHT22;36499;46.484;13.832;2023-04-29T11:03:49;20.40;90.40
12470;DHT22;36499;46.484;13.832;2023-04-29T11:06:21;20.40;89.90
12470;DHT22;36499;46.484;13.832;2023-04-29T11:09:01;20.50;90.60
12470;DHT22;36499;46.484;13.832;2023-04-29T11:11:46;20.60;90.40
12470;DHT22;36499;46.484;13.832;2023-04-29T11:14:20;20.90;88.50
12470;DHT22;36499;46.484;13.832;2023-04-29T11:16:51;21.10;88.80
12470;DHT22;36499;46.484;13.832;2023-04-29T11:19:19;21.20;87.50
12470;DHT22;36499;46.484;13.832;2023-04-29T11:21:46;21.20;88.30
12470;DHT22;36499;46.484;13.832;2023-04-29T11:24:15;21.40;88.40
12470;DHT22;36499;46.484;13.832;2023-04-29T11:26:42;21.60;85.90
12470;DHT22;36499;46.484;13.832;2023-04-29T11:29:11;21.90;88.10
12470;DHT22;36499;46.484;13.832;2023-04-29T11:31:38;22.10;85.80
12470;DHT22;36499;46.484;13.832;2023-04-29T11:34:05;22.20;85.80
12470;DHT22;36499;46.484;13.832;2023-04-29T11:36:33;22.10;84.90
12470;DHT22;36499;46.484;13.832;2023-04-29T11:39:02;22.10;83.10
12470;DHT22;36499;46.484;13.832;2023-04-29T11:41:31;22.10;86.30
12470;DHT22;36499;46.484;13.832;2023-04-29T11:44:00;22.30;85.90
12470;DHT22;36499;46.484;13.832;2023-04-29T11:47:06;22.30;81.30
12470;DHT22;36499;46.484;13.832;2023-04-29T11:49:34;22.20;81.80
12470;DHT22;36499;46.484;13.832;2023-04-29T11:52:02;21.90;80.10
12470;DHT22;36499;46.484;13.832;2023-04-29T11:54:30;21.80;83.20
12470;DHT22;36499;46.484;13.832;2023-04-29T11:56:58;21.70;82.60
12470;DHT22;36499;46.484;13.832;2023-04-29T11:59:26;21.70;82.50
12470;DHT22;36499;46.484;13.832;2023-04-29T12:01:53;21.70;81.20
12470;DHT22;36499;46.484;13.832;2023-04-29T12:04:21;21.80;83.30
12470;DHT22;36499;46.484;13.832;2023-04-29T12:06:50;22.00;82.00
12470;DHT22;36499;46.484;13.832;2023-04-29T12:09:18;22.10;82.10
12470;DHT22;36499;46.484;13.832;2023-04-29T12:37:51;22.40;80.60
12470;DHT22;36499;46.484;13.832;2023-04-29T12:40:18;21.90;76.10
12470;DHT22;36499;46.484;13.832;2023-04-29T12:42:45;21.40;76.60
12470;DHT22;36499;46.484;13.832;2023-04-29T12:45:26;20.90;79.10
12470;DHT22;36499;46.484;13.832;2023-04-29T12:47:56;20.70;78.50
12470;DHT22;36499;46.484;13.832;2023-04-29T12:50:30;20.60;77.80
12470;DHT22;36499;46.484;13.832;2023-04-29T12:53:01;20.40;78.50
12470;DHT22;36499;46.484;13.832;2023-04-29T12:55:31;20.30;81.20
12470;DHT22;36499;46.484;13.832;2023-04-29T12:58:00;20.30;79.80
12470;DHT22;36499;46.484;13.832;2023-04-29T13:00:27;20.30;82.30
12470;DHT22;36499;46.484;13.832;2023-04-29T13:02:54;20.30;80.20
12470;DHT22;36499;46.484;13.832;2023-04-29T13:05:21;20.20;81.10
12470;DHT22;36499;46.484;13.832;2023-04-29T13:07:48;20.20;79.60
12470;DHT22;36499;46.484;13.832;2023-04-29T13:10:17;20.20;81.80
12470;DHT22;36499;46.484;13.832;2023-04-29T13:12:44;20.20;80.80
12470;DHT22;36499;46.484;13.832;2023-04-29T13:15:12;20.20;81.20
12470;DHT22;36499;46.484;13.832;2023-04-29T13:17:40;20.50;80.30
12470;DHT22;36499;46.484;13.832;2023-04-29T13:20:07;20.90;83.40
12470;DHT22;36499;46.484;13.832;2023-04-29T13:22:36;21.20;79.90
12470;DHT22;36499;46.484;13.832;2023-04-29T13:25:04;21.50;81.50
12470;DHT22;36499;46.484;13.832;2023-04-29T13:27:33;21.80;81.60
12470;DHT22;36499;46.484;13.832;2023-04-29T13:30:00;21.90;75.80
12470;DHT22;36499;46.484;13.832;2023-04-29T13:32:27;22.10;77.60
12470;DHT22;36499;46.484;13.832;2023-04-29T13:34:54;22.00;75.10
12470;DHT22;36499;46.484;13.832;2023-04-29T13:37:21;21.80;76.80
12470;DHT22;36499;46.484;13.832;2023-04-29T13:39:48;21.60;76.70
12470;DHT22;36499;46.484;13.832;2023-04-29T13:42:15;21.40;76.30
12470;DHT22;36499;46.484;13.832;2023-04-29T13:44:43;21.10;77.00
12470;DHT22;36499;46.484;13.832;2023-04-29T13:47:11;20.80;76.80
12470;DHT22;36499;46.484;13.832;2023-04-29T13:49:39;20.60;75.70
12470;DHT22;36499;46.484;13.832;2023-04-29T13:52:06;20.40;76.60
12470;DHT22;36499;46.484;13.832;2023-04-29T13:54:33;20.20;78.20
12470;DHT22;36499;46.484;13.832;2023-04-29T13:57:00;20.00;77.50
12470;DHT22;36499;46.484;13.832;2023-04-29T13:59:30;19.80;78.50
12470;DHT22;36499;46.484;13.832;2023-04-29T14:01:59;19.70;78.90
12470;DHT22;36499;46.484;13.832;2023-04-29T14:04:27;19.60;79.30
12470;DHT22;36499;46.484;13.832;2023-04-29T14:06:55;19.50;79.20
12470;DHT22;36499;46.484;13.832;2023-04-29T14:09:23;19.30;80.30
12470;DHT22;36499;46.484;13.832;2023-04-29T14:11:50;19.20;83.00
12470;DHT22;36499;46.484;13.832;2023-04-29T14:14:18;18.90;89.40
12470;DHT22;36499;46.484;13.832;2023-04-29T14:16:45;18.20;91.20
12470;DHT22;36499;46.484;13.832;2023-04-29T14:19:14;17.10;86.00
12470;DHT22;36499;46.484;13.832;2023-04-29T14:21:41;16.50;92.10
12470;DHT22;36499;46.484;13.832;2023-04-29T14:24:08;15.90;99.90
12470;DHT22;36499;46.484;13.832;2023-04-29T14:26:35;15.30;99.90
12470;DHT22;36499;46.484;13.832;2023-04-29T14:29:02;14.90;99.90
12470;DHT22;36499;46.484;13.832;2023-04-29T14:31:32;14.60;99.90
12470;DHT22;36499;46.484;13.832;2023-04-29T14:34:00;14.30;99.90
12470;DHT22;36499;46.484;13.832;2023-04-29T14:36:29;14.00;99.90
12470;DHT22;36499;46.484;13.832;2023-04-29T14:38:58;13.80;99.90
12470;DHT22;36499;46.484;13.832;2023-04-29T14:41:25;13.80;99.90
12470;DHT22;36499;46.484;13.832;2023-04-29T14:43:52;13.90;99.90
12470;DHT22;36499;46.484;13.832;2023-04-29T14:46:19;14.00;99.90
12470;DHT22;36499;46.484;13.832;2023-04-29T14:48:47;14.00;99.90
12470;DHT22;36499;46.484;13.832;2023-04-29T14:51:15;14.00;99.90
12470;DHT22;36499;46.484;13.832;2023-04-29T14:53:43;14.00;99.90
12470;DHT22;36499;46.484;13.832;2023-04-29T14:56:10;14.00;99.90
12470;DHT22;36499;46.484;13.832;2023-04-29T14:58:37;13.90;99.90
12470;DHT22;36499;46.484;13.832;2023-04-29T15:01:04;13.80;99.90
12470;DHT22;36499;46.484;13.832;2023-04-29T15:03:31;13.80;99.90
12470;DHT22;36499;46.484;13.832;2023-04-29T15:06:00;13.90;99.90
12470;DHT22;36499;46.484;13.832;2023-04-29T15:08:28;14.00;99.90
12470;DHT22;36499;46.484;13.832;2023-04-29T15:10:57;13.90;99.90
12470;DHT22;36499;46.484;13.832;2023-04-29T15:13:24;14.10;99.90
12470;DHT22;36499;46.484;13.832;2023-04-29T15:15:51;14.10;99.90
12470;DHT22;36499;46.484;13.832;2023-04-29T15:18:18;14.10;99.90
12470;DHT22;36499;46.484;13.832;2023-04-29T15:20:47;14.10;99.90
12470;DHT22;36499;46.484;13.832;2023-04-29T15:23:15;14.20;99.90
12470;DHT22;36499;46.484;13.832;2023-04-29T15:25:42;14.20;99.90
12470;DHT22;36499;46.484;13.832;2023-04-29T15:28:10;14.20;99.90
12470;DHT22;36499;46.484;13.832;2023-04-29T15:30:37;14.30;99.90
12470;DHT22;36499;46.484;13.832;2023-04-29T15:33:04;14.40;99.90
12470;DHT22;36499;46.484;13.832;2023-04-29T15:35:33;14.40;99.90
12470;DHT22;36499;46.484;13.832;2023-04-29T15:38:00;14.40;99.90
12470;DHT22;36499;46.484;13.832;2023-04-29T15:40:27;14.50;99.90
12470;DHT22;36499;46.484;13.832;2023-04-29T15:42:55;14.50;99.90
12470;DHT22;36499;46.484;13.832;2023-04-29T15:45:23;14.40;99.90
12470;DHT22;36499;46.484;13.832;2023-04-29T15:47:50;14.40;99.90
12470;DHT22;36499;46.484;13.832;2023-04-29T15:50:17;14.30;99.90
12470;DHT22;36499;46.484;13.832;2023-04-29T15:52:45;14.30;99.90
12470;DHT22;36499;46.484;13.832;2023-04-29T15:55:12;14.30;99.90
12470;DHT22;36499;46.484;13.832;2023-04-29T15:57:39;14.20;99.90
12470;DHT22;36499;46.484;13.832;2023-04-29T16:00:08;14.10;99.90
12470;DHT22;36499;46.484;13.832;2023-04-29T16:02:37;14.10;99.90
12470;DHT22;36499;46.484;13.832;2023-04-29T16:05:04;14.00;99.90
12470;DHT22;36499;46.484;13.832;2023-04-29T16:07:32;14.00;99.90
12470;DHT22;36499;46.484;13.832;2023-04-29T16:09:59;13.90;99.90
12470;DHT22;36499;46.484;13.832;2023-04-29T16:12:26;13.90;99.90
12470;DHT22;36499;46.484;13.832;2023-04-29T16:14:53;13.80;99.90
12470;DHT22;36499;46.484;13.832;2023-04-29T16:17:20;13.80;99.90
12470;DHT22;36499;46.484;13.832;2023-04-29T16:19:48;13.70;99.90
12470;DHT22;36499;46.484;13.832;2023-04-29T16:22:15;13.70;99.90
12470;DHT22;36499;46.484;13.832;2023-04-29T16:24:42;13.60;99.90
12470;DHT22;36499;46.484;13.832;2023-04-29T16:27:09;13.60;99.90
12470;DHT22;36499;46.484;13.832;2023-04-29T16:29:38;13.50;99.90
12470;DHT22;36499;46.484;13.832;2023-04-29T16:32:05;13.50;99.90
12470;DHT22;36499;46.484;13.832;2023-04-29T16:34:32;13.40;99.90
12470;DHT22;36499;46.484;13.832;2023-04-29T16:37:00;13.40;99.90
12470;DHT22;36499;46.484;13.832;2023-04-29T16:39:28;13.30;99.90
12470;DHT22;36499;46.484;13.832;2023-04-29T16:41:55;13.30;99.90
12470;DHT22;36499;46.484;13.832;2023-04-29T16:44:23;13.20;99.90
12470;DHT22;36499;46.484;13.832;2023-04-29T16:46:50;13.10;99.90
12470;DHT22;36499;46.484;13.832;2023-04-29T16:49:22;12.80;99.90
12470;DHT22;36499;46.484;13.832;2023-04-29T16:51:50;12.60;99.90
12470;DHT22;36499;46.484;13.832;2023-04-29T16:54:20;12.40;99.90
12470;DHT22;36499;46.484;13.832;2023-04-29T16:56:47;12.30;99.90
12470;DHT22;36499;46.484;13.832;2023-04-29T16:59:15;12.40;99.90
12470;DHT22;36499;46.484;13.832;2023-04-29T17:01:42;12.40;99.90
12470;DHT22;36499;46.484;13.832;2023-04-29T17:04:09;12.50;99.90
12470;DHT22;36499;46.484;13.832;2023-04-29T17:06:36;12.50;99.90
12470;DHT22;36499;46.484;13.832;2023-04-29T17:09:05;12.50;99.90
12470;DHT22;36499;46.484;13.832;2023-04-29T17:11:33;12.60;99.90
12470;DHT22;36499;46.484;13.832;2023-04-29T17:14:00;12.60;99.90
12470;DHT22;36499;46.484;13.832;2023-04-29T17:16:28;12.60;99.90
12470;DHT22;36499;46.484;13.832;2023-04-29T17:18:56;12.70;99.90
12470;DHT22;36499;46.484;13.832;2023-04-29T17:21:23;12.70;99.90
12470;DHT22;36499;46.484;13.832;2023-04-29T17:23:50;12.70;99.90
12470;DHT22;36499;46.484;13.832;2023-04-29T17:26:18;12.70;99.90
12470;DHT22;36499;46.484;13.832;2023-04-29T17:28:47;12.60;99.90
12470;DHT22;36499;46.484;13.832;2023-04-29T17:31:14;12.50;99.90
12470;DHT22;36499;46.484;13.832;2023-04-29T17:33:41;12.60;99.90
12470;DHT22;36499;46.484;13.832;2023-04-29T17:36:19;12.60;99.90
12470;DHT22;36499;46.484;13.832;2023-04-29T17:38:46;12.50;99.90
12470;DHT22;36499;46.484;13.832;2023-04-29T17:41:13;12.50;99.90
12470;DHT22;36499;46.484;13.832;2023-04-29T17:43:40;12.60;99.90
12470;DHT22;36499;46.484;13.832;2023-04-29T17:46:09;12.60;99.90
12470;DHT22;36499;46.484;13.832;2023-04-29T17:48:36;12.50;99.90
12470;DHT22;36499;46.484;13.832;2023-04-29T17:51:03;12.50;99.90
12470;DHT22;36499;46.484;13.832;2023-04-29T17:53:30;12.50;99.90
12470;DHT22;36499;46.484;13.832;2023-04-29T17:55:58;12.40;99.90
12470;DHT22;36499;46.484;13.832;2023-04-29T17:58:25;12.40;99.90
12470;DHT22;36499;46.484;13.832;2023-04-29T18:00:53;12.40;99.90
12470;DHT22;36499;46.484;13.832;2023-04-29T18:03:22;12.30;99.90
12470;DHT22;36499;46.484;13.832;2023-04-29T18:05:51;12.20;99.90
12470;DHT22;36499;46.484;13.832;2023-04-29T18:08:18;12.20;99.90
12470;DHT22;36499;46.484;13.832;2023-04-29T18:10:45;12.10;99.90
12470;DHT22;36499;46.484;13.832;2023-04-29T18:13:13;12.00;99.90
12470;DHT22;36499;46.484;13.832;2023-04-29T18:15:40;11.90;99.90
12470;DHT22;36499;46.484;13.832;2023-04-29T18:18:07;11.80;99.90
12470;DHT22;36499;46.484;13.832;2023-04-29T18:20:35;11.70;99.90
12470;DHT22;36499;46.484;13.832;2023-04-29T18:23:04;11.60;99.90
12470;DHT22;36499;46.484;13.832;2023-04-29T18:25:35;11.50;99.90
12470;DHT22;36499;46.484;13.832;2023-04-29T18:28:03;11.50;99.90
12470;DHT22;36499;46.484;13.832;2023-04-29T18:30:31;11.40;99.90
12470;DHT22;36499;46.484;13.832;2023-04-29T18:32:58;11.40;99.90
12470;DHT22;36499;46.484;13.832;2023-04-29T18:35:25;11.30;99.90
12470;DHT22;36499;46.484;13.832;2023-04-29T18:37:54;11.20;99.90
12470;DHT22;36499;46.484;13.832;2023-04-29T18:40:21;11.20;99.90
12470;DHT22;36499;46.484;13.832;2023-04-29T18:42:49;11.20;99.90
12470;DHT22;36499;46.484;13.832;2023-04-29T18:45:16;11.10;99.90
12470;DHT22;36499;46.484;13.832;2023-04-29T18:47:43;11.10;99.90
12470;DHT22;36499;46.484;13.832;2023-04-29T18:50:10;11.00;99.90
12470;DHT22;36499;46.484;13.832;2023-04-29T18:52:38;11.00;99.90
12470;DHT22;36499;46.484;13.832;2023-04-29T18:55:07;10.90;99.90
12470;DHT22;36499;46.484;13.832;2023-04-29T18:57:35;10.80;99.90
12470;DHT22;36499;46.484;13.832;2023-04-29T19:00:03;10.70;99.90
12470;DHT22;36499;46.484;13.832;2023-04-29T19:02:31;10.70;99.90
12470;DHT22;36499;46.484;13.832;2023-04-29T19:04:58;10.70;99.90
12470;DHT22;36499;46.484;13.832;2023-04-29T19:07:30;10.60;99.90
12470;DHT22;36499;46.484;13.832;2023-04-29T19:09:57;10.40;99.90
12470;DHT22;36499;46.484;13.832;2023-04-29T19:12:25;10.40;99.90
12470;DHT22;36499;46.484;13.832;2023-04-29T19:14:53;10.30;99.90
12470;DHT22;36499;46.484;13.832;2023-04-29T19:17:20;10.20;99.90
12470;DHT22;36499;46.484;13.832;2023-04-29T19:19:47;10.20;99.90
12470;DHT22;36499;46.484;13.832;2023-04-29T19:22:14;10.20;99.90
12470;DHT22;36499;46.484;13.832;2023-04-29T19:24:42;10.20;99.90
12470;DHT22;36499;46.484;13.832;2023-04-29T19:27:09;10.20;99.90
12470;DHT22;36499;46.484;13.832;2023-04-29T19:29:37;10.20;99.90
12470;DHT22;36499;46.484;13.832;2023-04-29T19:32:05;10.20;99.90
12470;DHT22;36499;46.484;13.832;2023-04-29T19:34:32;10.20;99.90
12470;DHT22;36499;46.484;13.832;2023-04-29T19:36:59;10.20;99.90
12470;DHT22;36499;46.484;13.832;2023-04-29T19:39:26;10.20;99.90
12470;DHT22;36499;46.484;13.832;2023-04-29T19:41:53;10.20;99.90
12470;DHT22;36499;46.484;13.832;2023-04-29T19:44:22;10.20;99.90
12470;DHT22;36499;46.484;13.832;2023-04-29T19:46:51;10.20;99.90
12470;DHT22;36499;46.484;13.832;2023-04-29T19:49:19;10.20;99.90